sensor_id;sensor_type;location;lat;lon;timestamp;P1;durP1;ratioP1;P2;durP2;ratioP2
13102;SDS011;52970;46.752;17.108;2022-10-15T00:00:43;26.50;;;21.08;;
13102;SDS011;52970;46.752;17.108;2022-10-15T00:03:09;24.10;;;18.92;;
13102;SDS011;52970;46.752;17.108;2022-10-15T00:05:38;29.90;;;23.08;;
13102;SDS011;52970;46.752;17.108;2022-10-15T00:08:03;29.85;;;22.55;;
13102;SDS011;52970;46.752;17.108;2022-10-15T00:10:28;33.97;;;23.83;;
13102;SDS011;52970;46.752;17.108;2022-10-15T00:12:54;24.35;;;19.65;;
13102;SDS011;52970;46.752;17.108;2022-10-15T00:15:20;25.92;;;19.25;;
13102;SDS011;52970;46.752;17.108;2022-10-15T00:17:45;27.17;;;20.58;;
13102;SDS011;52970;46.752;17.108;2022-10-15T00:20:10;42.13;;;27.02;;
13102;SDS011;52970;46.752;17.108;2022-10-15T00:22:36;43.10;;;28.48;;
13102;SDS011;52970;46.752;17.108;2022-10-15T00:25:02;36.15;;;24.45;;
13102;SDS011;52970;46.752;17.108;2022-10-15T00:27:27;34.60;;;23.88;;
13102;SDS011;52970;46.752;17.108;2022-10-15T00:29:53;33.85;;;22.42;;
13102;SDS011;52970;46.752;17.108;2022-10-15T00:32:18;40.53;;;25.55;;
13102;SDS011;52970;46.752;17.108;2022-10-15T00:34:43;34.65;;;23.73;;
13102;SDS011;52970;46.752;17.108;2022-10-15T00:37:08;32.67;;;22.42;;
13102;SDS011;52970;46.752;17.108;2022-10-15T00:39:34;30.65;;;22.38;;
13102;SDS011;52970;46.752;17.108;2022-10-15T00:41:59;30.40;;;23.17;;
13102;SDS011;52970;46.752;17.108;2022-10-15T00:46:53;31.02;;;22.80;;
13102;SDS011;52970;46.752;17.108;2022-10-15T00:49:23;29.17;;;22.23;;
13102;SDS011;52970;46.752;17.108;2022-10-15T00:51:57;27.85;;;21.23;;
13102;SDS011;52970;46.752;17.108;2022-10-15T00:54:23;29.45;;;21.88;;
13102;SDS011;52970;46.752;17.108;2022-10-15T00:56:50;30.05;;;22.80;;
13102;SDS011;52970;46.752;17.108;2022-10-15T00:59:16;32.60;;;23.95;;
13102;SDS011;52970;46.752;17.108;2022-10-15T01:01:42;45.50;;;28.73;;
13102;SDS011;52970;46.752;17.108;2022-10-15T01:04:07;58.72;;;29.60;;
13102;SDS011;52970;46.752;17.108;2022-10-15T01:06:33;37.15;;;23.40;;
13102;SDS011;52970;46.752;17.108;2022-10-15T01:08:58;56.05;;;30.20;;
13102;SDS011;52970;46.752;17.108;2022-10-15T01:12:07;38.75;;;27.02;;
13102;SDS011;52970;46.752;17.108;2022-10-15T01:16:59;45.65;;;27.63;;
13102;SDS011;52970;46.752;17.108;2022-10-15T01:22:08;35.15;;;24.88;;
13102;SDS011;52970;46.752;17.108;2022-10-15T01:27:23;36.65;;;24.45;;
13102;SDS011;52970;46.752;17.108;2022-10-15T01:29:57;42.00;;;26.05;;
13102;SDS011;52970;46.752;17.108;2022-10-15T01:32:36;46.00;;;25.02;;
13102;SDS011;52970;46.752;17.108;2022-10-15T01:35:20;31.55;;;24.13;;
13102;SDS011;52970;46.752;17.108;2022-10-15T01:37:51;35.50;;;23.98;;
13102;SDS011;52970;46.752;17.108;2022-10-15T01:40:22;44.28;;;26.35;;
13102;SDS011;52970;46.752;17.108;2022-10-15T01:42:57;31.95;;;23.92;;
13102;SDS011;52970;46.752;17.108;2022-10-15T01:45:28;30.15;;;22.73;;
13102;SDS011;52970;46.752;17.108;2022-10-15T01:47:56;28.17;;;22.67;;
13102;SDS011;52970;46.752;17.108;2022-10-15T01:50:23;39.50;;;22.17;;
13102;SDS011;52970;46.752;17.108;2022-10-15T01:52:49;30.05;;;22.52;;
13102;SDS011;52970;46.752;17.108;2022-10-15T01:55:15;25.92;;;21.20;;
13102;SDS011;52970;46.752;17.108;2022-10-15T01:57:42;28.10;;;22.27;;
13102;SDS011;52970;46.752;17.108;2022-10-15T02:00:08;27.00;;;21.30;;
13102;SDS011;52970;46.752;17.108;2022-10-15T02:02:33;27.23;;;21.20;;
13102;SDS011;52970;46.752;17.108;2022-10-15T02:04:58;29.75;;;22.73;;
13102;SDS011;52970;46.752;17.108;2022-10-15T02:10:30;26.30;;;20.35;;
13102;SDS011;52970;46.752;17.108;2022-10-15T02:23:22;23.90;;;20.55;;
13102;SDS011;52970;46.752;17.108;2022-10-15T02:25:48;25.17;;;20.55;;
13102;SDS011;52970;46.752;17.108;2022-10-15T02:28:14;26.67;;;21.30;;
13102;SDS011;52970;46.752;17.108;2022-10-15T02:30:40;27.25;;;21.02;;
13102;SDS011;52970;46.752;17.108;2022-10-15T02:33:06;33.15;;;22.83;;
13102;SDS011;52970;46.752;17.108;2022-10-15T02:35:31;31.30;;;21.52;;
13102;SDS011;52970;46.752;17.108;2022-10-15T02:37:57;28.13;;;20.65;;
13102;SDS011;52970;46.752;17.108;2022-10-15T02:40:26;28.38;;;20.42;;
13102;SDS011;52970;46.752;17.108;2022-10-15T02:42:52;29.30;;;20.75;;
13102;SDS011;52970;46.752;17.108;2022-10-15T02:45:17;25.20;;;20.83;;
13102;SDS011;52970;46.752;17.108;2022-10-15T02:47:42;23.38;;;19.48;;
13102;SDS011;52970;46.752;17.108;2022-10-15T02:50:07;26.20;;;20.85;;
13102;SDS011;52970;46.752;17.108;2022-10-15T02:52:33;24.80;;;20.23;;
13102;SDS011;52970;46.752;17.108;2022-10-15T02:54:58;24.63;;;19.55;;
13102;SDS011;52970;46.752;17.108;2022-10-15T02:57:23;25.98;;;20.30;;
13102;SDS011;52970;46.752;17.108;2022-10-15T02:59:49;23.90;;;19.33;;
13102;SDS011;52970;46.752;17.108;2022-10-15T03:02:14;23.02;;;19.15;;
13102;SDS011;52970;46.752;17.108;2022-10-15T03:04:39;22.70;;;18.17;;
13102;SDS011;52970;46.752;17.108;2022-10-15T03:07:04;21.58;;;17.63;;
13102;SDS011;52970;46.752;17.108;2022-10-15T03:09:30;21.00;;;17.60;;
13102;SDS011;52970;46.752;17.108;2022-10-15T03:11:55;22.52;;;17.65;;
13102;SDS011;52970;46.752;17.108;2022-10-15T03:14:20;19.67;;;16.10;;
13102;SDS011;52970;46.752;17.108;2022-10-15T03:16:45;20.38;;;17.25;;
13102;SDS011;52970;46.752;17.108;2022-10-15T03:19:10;18.13;;;16.20;;
13102;SDS011;52970;46.752;17.108;2022-10-15T03:21:36;18.05;;;15.57;;
13102;SDS011;52970;46.752;17.108;2022-10-15T03:24:01;17.60;;;15.57;;
13102;SDS011;52970;46.752;17.108;2022-10-15T03:26:26;17.95;;;15.77;;
13102;SDS011;52970;46.752;17.108;2022-10-15T03:28:51;23.85;;;15.85;;
13102;SDS011;52970;46.752;17.108;2022-10-15T03:31:16;17.55;;;14.70;;
13102;SDS011;52970;46.752;17.108;2022-10-15T03:33:42;18.60;;;15.43;;
13102;SDS011;52970;46.752;17.108;2022-10-15T03:36:07;15.75;;;14.02;;
13102;SDS011;52970;46.752;17.108;2022-10-15T03:38:32;20.15;;;15.73;;
13102;SDS011;52970;46.752;17.108;2022-10-15T03:40:58;17.45;;;15.65;;
13102;SDS011;52970;46.752;17.108;2022-10-15T03:43:23;16.27;;;14.60;;
13102;SDS011;52970;46.752;17.108;2022-10-15T03:45:49;18.00;;;14.40;;
13102;SDS011;52970;46.752;17.108;2022-10-15T03:48:14;18.13;;;16.23;;
13102;SDS011;52970;46.752;17.108;2022-10-15T03:50:40;16.27;;;14.57;;
13102;SDS011;52970;46.752;17.108;2022-10-15T03:53:05;16.08;;;14.07;;
13102;SDS011;52970;46.752;17.108;2022-10-15T03:55:30;17.55;;;15.70;;
13102;SDS011;52970;46.752;17.108;2022-10-15T03:57:55;20.70;;;16.23;;
13102;SDS011;52970;46.752;17.108;2022-10-15T04:00:21;16.83;;;15.02;;
13102;SDS011;52970;46.752;17.108;2022-10-15T04:02:46;16.17;;;13.75;;
13102;SDS011;52970;46.752;17.108;2022-10-15T04:05:11;20.80;;;14.48;;
13102;SDS011;52970;46.752;17.108;2022-10-15T04:07:36;15.98;;;14.30;;
13102;SDS011;52970;46.752;17.108;2022-10-15T04:10:02;15.70;;;14.05;;
13102;SDS011;52970;46.752;17.108;2022-10-15T04:12:27;14.65;;;13.15;;
13102;SDS011;52970;46.752;17.108;2022-10-15T04:14:52;19.45;;;14.63;;
13102;SDS011;52970;46.752;17.108;2022-10-15T04:17:17;16.73;;;13.75;;
13102;SDS011;52970;46.752;17.108;2022-10-15T04:19:43;16.67;;;13.93;;
13102;SDS011;52970;46.752;17.108;2022-10-15T04:22:08;16.63;;;13.90;;
13102;SDS011;52970;46.752;17.108;2022-10-15T04:24:33;16.98;;;14.27;;
13102;SDS011;52970;46.752;17.108;2022-10-15T04:26:58;18.30;;;15.07;;
13102;SDS011;52970;46.752;17.108;2022-10-15T04:29:24;19.50;;;14.88;;
13102;SDS011;52970;46.752;17.108;2022-10-15T04:31:49;20.60;;;16.65;;
13102;SDS011;52970;46.752;17.108;2022-10-15T04:34:14;18.20;;;14.90;;
13102;SDS011;52970;46.752;17.108;2022-10-15T04:36:39;20.15;;;15.20;;
13102;SDS011;52970;46.752;17.108;2022-10-15T04:39:04;21.95;;;16.00;;
13102;SDS011;52970;46.752;17.108;2022-10-15T04:41:30;22.13;;;15.45;;
13102;SDS011;52970;46.752;17.108;2022-10-15T04:43:55;21.45;;;15.63;;
13102;SDS011;52970;46.752;17.108;2022-10-15T04:46:21;23.02;;;17.10;;
13102;SDS011;52970;46.752;17.108;2022-10-15T04:48:46;22.60;;;16.70;;
13102;SDS011;52970;46.752;17.108;2022-10-15T04:51:13;22.90;;;17.77;;
13102;SDS011;52970;46.752;17.108;2022-10-15T04:53:39;22.95;;;16.50;;
13102;SDS011;52970;46.752;17.108;2022-10-15T04:56:05;19.40;;;15.55;;
13102;SDS011;52970;46.752;17.108;2022-10-15T04:58:31;20.88;;;16.80;;
13102;SDS011;52970;46.752;17.108;2022-10-15T05:01:00;24.15;;;17.45;;
13102;SDS011;52970;46.752;17.108;2022-10-15T05:03:26;25.08;;;18.73;;
13102;SDS011;52970;46.752;17.108;2022-10-15T05:05:51;31.08;;;22.33;;
13102;SDS011;52970;46.752;17.108;2022-10-15T05:08:16;34.22;;;25.42;;
13102;SDS011;52970;46.752;17.108;2022-10-15T05:10:42;34.42;;;24.30;;
13102;SDS011;52970;46.752;17.108;2022-10-15T05:13:07;31.25;;;24.92;;
13102;SDS011;52970;46.752;17.108;2022-10-15T05:15:32;30.92;;;24.15;;
13102;SDS011;52970;46.752;17.108;2022-10-15T05:17:57;28.55;;;21.65;;
13102;SDS011;52970;46.752;17.108;2022-10-15T05:20:23;28.30;;;20.40;;
13102;SDS011;52970;46.752;17.108;2022-10-15T05:22:48;27.35;;;21.05;;
13102;SDS011;52970;46.752;17.108;2022-10-15T05:25:13;28.00;;;20.50;;
13102;SDS011;52970;46.752;17.108;2022-10-15T05:27:38;25.98;;;19.83;;
13102;SDS011;52970;46.752;17.108;2022-10-15T05:30:04;26.90;;;19.83;;
13102;SDS011;52970;46.752;17.108;2022-10-15T05:32:30;23.48;;;17.90;;
13102;SDS011;52970;46.752;17.108;2022-10-15T05:34:55;27.38;;;21.15;;
13102;SDS011;52970;46.752;17.108;2022-10-15T05:37:20;25.52;;;20.35;;
13102;SDS011;52970;46.752;17.108;2022-10-15T05:39:45;26.00;;;18.50;;
13102;SDS011;52970;46.752;17.108;2022-10-15T05:42:11;23.70;;;19.13;;
13102;SDS011;52970;46.752;17.108;2022-10-15T05:44:37;27.60;;;20.77;;
13102;SDS011;52970;46.752;17.108;2022-10-15T05:47:02;24.45;;;19.00;;
13102;SDS011;52970;46.752;17.108;2022-10-15T05:49:27;26.48;;;18.45;;
13102;SDS011;52970;46.752;17.108;2022-10-15T05:51:52;24.77;;;18.75;;
13102;SDS011;52970;46.752;17.108;2022-10-15T05:54:17;24.13;;;18.85;;
13102;SDS011;52970;46.752;17.108;2022-10-15T05:56:43;22.35;;;17.90;;
13102;SDS011;52970;46.752;17.108;2022-10-15T05:59:08;23.60;;;18.75;;
13102;SDS011;52970;46.752;17.108;2022-10-15T06:01:33;25.45;;;20.13;;
13102;SDS011;52970;46.752;17.108;2022-10-15T06:03:59;23.40;;;18.83;;
13102;SDS011;52970;46.752;17.108;2022-10-15T06:06:24;24.50;;;18.92;;
13102;SDS011;52970;46.752;17.108;2022-10-15T06:08:53;25.33;;;18.42;;
13102;SDS011;52970;46.752;17.108;2022-10-15T06:11:18;22.95;;;18.55;;
13102;SDS011;52970;46.752;17.108;2022-10-15T06:13:44;27.05;;;20.98;;
13102;SDS011;52970;46.752;17.108;2022-10-15T06:16:10;24.92;;;20.08;;
13102;SDS011;52970;46.752;17.108;2022-10-15T06:18:36;25.20;;;20.42;;
13102;SDS011;52970;46.752;17.108;2022-10-15T06:21:02;24.30;;;19.05;;
13102;SDS011;52970;46.752;17.108;2022-10-15T06:23:27;23.35;;;19.52;;
13102;SDS011;52970;46.752;17.108;2022-10-15T06:25:53;24.00;;;19.73;;
13102;SDS011;52970;46.752;17.108;2022-10-15T06:28:18;22.90;;;19.38;;
13102;SDS011;52970;46.752;17.108;2022-10-15T06:30:43;22.80;;;19.40;;
13102;SDS011;52970;46.752;17.108;2022-10-15T06:33:09;22.85;;;18.30;;
13102;SDS011;52970;46.752;17.108;2022-10-15T06:35:34;25.38;;;20.60;;
13102;SDS011;52970;46.752;17.108;2022-10-15T06:38:03;24.58;;;20.25;;
13102;SDS011;52970;46.752;17.108;2022-10-15T06:40:28;25.52;;;21.17;;
13102;SDS011;52970;46.752;17.108;2022-10-15T06:42:54;23.00;;;19.90;;
13102;SDS011;52970;46.752;17.108;2022-10-15T06:45:19;24.05;;;19.90;;
13102;SDS011;52970;46.752;17.108;2022-10-15T06:47:44;22.40;;;19.08;;
13102;SDS011;52970;46.752;17.108;2022-10-15T06:50:09;22.33;;;19.40;;
13102;SDS011;52970;46.752;17.108;2022-10-15T06:52:35;22.92;;;18.65;;
13102;SDS011;52970;46.752;17.108;2022-10-15T06:55:00;22.63;;;19.02;;
13102;SDS011;52970;46.752;17.108;2022-10-15T06:57:26;21.33;;;18.40;;
13102;SDS011;52970;46.752;17.108;2022-10-15T06:59:52;21.50;;;19.20;;
13102;SDS011;52970;46.752;17.108;2022-10-15T07:02:17;21.13;;;18.45;;
13102;SDS011;52970;46.752;17.108;2022-10-15T07:04:43;20.10;;;16.85;;
13102;SDS011;52970;46.752;17.108;2022-10-15T07:07:08;21.27;;;17.60;;
13102;SDS011;52970;46.752;17.108;2022-10-15T07:09:34;20.60;;;16.95;;
13102;SDS011;52970;46.752;17.108;2022-10-15T07:12:00;22.42;;;17.92;;
13102;SDS011;52970;46.752;17.108;2022-10-15T07:14:25;21.95;;;18.58;;
13102;SDS011;52970;46.752;17.108;2022-10-15T07:16:51;19.85;;;16.23;;
13102;SDS011;52970;46.752;17.108;2022-10-15T07:19:16;22.85;;;17.98;;
13102;SDS011;52970;46.752;17.108;2022-10-15T07:21:41;24.10;;;18.25;;
13102;SDS011;52970;46.752;17.108;2022-10-15T07:24:06;23.30;;;17.88;;
13102;SDS011;52970;46.752;17.108;2022-10-15T07:26:32;24.00;;;18.83;;
13102;SDS011;52970;46.752;17.108;2022-10-15T07:28:57;26.25;;;19.83;;
13102;SDS011;52970;46.752;17.108;2022-10-15T07:31:23;26.55;;;20.30;;
13102;SDS011;52970;46.752;17.108;2022-10-15T07:33:48;24.90;;;19.65;;
13102;SDS011;52970;46.752;17.108;2022-10-15T07:36:13;27.48;;;20.80;;
13102;SDS011;52970;46.752;17.108;2022-10-15T07:38:38;23.83;;;20.60;;
13102;SDS011;52970;46.752;17.108;2022-10-15T07:41:04;27.25;;;20.83;;
13102;SDS011;52970;46.752;17.108;2022-10-15T07:43:30;25.05;;;18.70;;
13102;SDS011;52970;46.752;17.108;2022-10-15T07:45:55;27.48;;;20.98;;
13102;SDS011;52970;46.752;17.108;2022-10-15T07:48:21;29.25;;;22.50;;
13102;SDS011;52970;46.752;17.108;2022-10-15T07:50:52;27.92;;;20.85;;
13102;SDS011;52970;46.752;17.108;2022-10-15T07:53:17;27.92;;;20.88;;
13102;SDS011;52970;46.752;17.108;2022-10-15T07:55:42;28.40;;;21.45;;
13102;SDS011;52970;46.752;17.108;2022-10-15T07:58:07;27.70;;;22.25;;
13102;SDS011;52970;46.752;17.108;2022-10-15T08:00:33;31.30;;;22.70;;
13102;SDS011;52970;46.752;17.108;2022-10-15T08:02:58;30.65;;;23.77;;
13102;SDS011;52970;46.752;17.108;2022-10-15T08:05:23;34.22;;;26.02;;
13102;SDS011;52970;46.752;17.108;2022-10-15T08:07:48;30.92;;;22.85;;
13102;SDS011;52970;46.752;17.108;2022-10-15T08:10:14;29.58;;;21.90;;
13102;SDS011;52970;46.752;17.108;2022-10-15T08:12:39;26.88;;;21.25;;
13102;SDS011;52970;46.752;17.108;2022-10-15T08:15:04;26.58;;;20.63;;
13102;SDS011;52970;46.752;17.108;2022-10-15T08:17:30;27.85;;;21.50;;
13102;SDS011;52970;46.752;17.108;2022-10-15T08:19:56;26.63;;;20.75;;
13102;SDS011;52970;46.752;17.108;2022-10-15T08:22:21;27.15;;;19.77;;
13102;SDS011;52970;46.752;17.108;2022-10-15T08:24:46;25.52;;;20.02;;
13102;SDS011;52970;46.752;17.108;2022-10-15T08:27:12;29.95;;;24.17;;
13102;SDS011;52970;46.752;17.108;2022-10-15T08:29:37;24.70;;;20.30;;
13102;SDS011;52970;46.752;17.108;2022-10-15T08:32:02;28.45;;;19.85;;
13102;SDS011;52970;46.752;17.108;2022-10-15T08:34:27;28.60;;;20.60;;
13102;SDS011;52970;46.752;17.108;2022-10-15T08:36:53;24.60;;;19.50;;
13102;SDS011;52970;46.752;17.108;2022-10-15T08:39:18;24.55;;;20.23;;
13102;SDS011;52970;46.752;17.108;2022-10-15T08:44:20;27.42;;;21.30;;
13102;SDS011;52970;46.752;17.108;2022-10-15T08:46:48;24.13;;;19.42;;
13102;SDS011;52970;46.752;17.108;2022-10-15T08:49:20;24.27;;;18.90;;
13102;SDS011;52970;46.752;17.108;2022-10-15T08:51:50;26.83;;;19.40;;
13102;SDS011;52970;46.752;17.108;2022-10-15T08:54:18;23.73;;;18.63;;
13102;SDS011;52970;46.752;17.108;2022-10-15T08:56:44;23.30;;;18.33;;
13102;SDS011;52970;46.752;17.108;2022-10-15T09:01:52;25.45;;;19.88;;
13102;SDS011;52970;46.752;17.108;2022-10-15T09:06:53;25.27;;;18.67;;
13102;SDS011;52970;46.752;17.108;2022-10-15T09:12:02;23.33;;;18.38;;
13102;SDS011;52970;46.752;17.108;2022-10-15T09:14:32;25.45;;;19.67;;
13102;SDS011;52970;46.752;17.108;2022-10-15T09:16:59;26.23;;;19.50;;
13102;SDS011;52970;46.752;17.108;2022-10-15T09:19:27;25.67;;;18.15;;
13102;SDS011;52970;46.752;17.108;2022-10-15T09:21:53;23.00;;;17.90;;
13102;SDS011;52970;46.752;17.108;2022-10-15T09:24:22;24.55;;;18.70;;
13102;SDS011;52970;46.752;17.108;2022-10-15T09:26:53;22.48;;;16.98;;
13102;SDS011;52970;46.752;17.108;2022-10-15T09:32:11;23.10;;;17.20;;
13102;SDS011;52970;46.752;17.108;2022-10-15T09:34:56;21.27;;;17.20;;
13102;SDS011;52970;46.752;17.108;2022-10-15T09:42:44;20.52;;;16.80;;
13102;SDS011;52970;46.752;17.108;2022-10-15T09:45:10;20.95;;;18.02;;
13102;SDS011;52970;46.752;17.108;2022-10-15T09:47:38;32.08;;;18.25;;
13102;SDS011;52970;46.752;17.108;2022-10-15T09:50:05;21.05;;;17.67;;
13102;SDS011;52970;46.752;17.108;2022-10-15T09:57:46;19.73;;;16.75;;
13102;SDS011;52970;46.752;17.108;2022-10-15T10:00:12;19.55;;;14.88;;
13102;SDS011;52970;46.752;17.108;2022-10-15T10:02:38;21.60;;;16.45;;
13102;SDS011;52970;46.752;17.108;2022-10-15T10:05:17;19.75;;;15.40;;
13102;SDS011;52970;46.752;17.108;2022-10-15T10:07:43;16.85;;;13.90;;
13102;SDS011;52970;46.752;17.108;2022-10-15T10:10:22;20.55;;;16.48;;
13102;SDS011;52970;46.752;17.108;2022-10-15T10:12:48;19.50;;;16.02;;
13102;SDS011;52970;46.752;17.108;2022-10-15T10:17:52;16.42;;;12.70;;
13102;SDS011;52970;46.752;17.108;2022-10-15T10:22:15;19.23;;;15.63;;
13102;SDS011;52970;46.752;17.108;2022-10-15T10:24:40;14.60;;;12.55;;
13102;SDS011;52970;46.752;17.108;2022-10-15T10:27:16;14.93;;;13.20;;
13102;SDS011;52970;46.752;17.108;2022-10-15T10:29:45;14.13;;;11.93;;
13102;SDS011;52970;46.752;17.108;2022-10-15T10:32:16;17.27;;;12.40;;
13102;SDS011;52970;46.752;17.108;2022-10-15T10:34:42;14.85;;;12.43;;
13102;SDS011;52970;46.752;17.108;2022-10-15T10:37:08;16.40;;;12.10;;
13102;SDS011;52970;46.752;17.108;2022-10-15T10:39:35;22.08;;;15.77;;
13102;SDS011;52970;46.752;17.108;2022-10-15T10:44:36;16.83;;;12.60;;
13102;SDS011;52970;46.752;17.108;2022-10-15T10:47:10;13.23;;;11.07;;
13102;SDS011;52970;46.752;17.108;2022-10-15T10:49:36;13.45;;;11.63;;
13102;SDS011;52970;46.752;17.108;2022-10-15T10:52:02;11.90;;;10.65;;
13102;SDS011;52970;46.752;17.108;2022-10-15T10:54:27;10.63;;;9.55;;
13102;SDS011;52970;46.752;17.108;2022-10-15T10:56:55;13.77;;;10.80;;
13102;SDS011;52970;46.752;17.108;2022-10-15T10:59:32;16.05;;;10.85;;
13102;SDS011;52970;46.752;17.108;2022-10-15T11:01:58;12.15;;;10.20;;
13102;SDS011;52970;46.752;17.108;2022-10-15T11:04:25;14.70;;;11.95;;
13102;SDS011;52970;46.752;17.108;2022-10-15T11:19:24;13.53;;;10.40;;
13102;SDS011;52970;46.752;17.108;2022-10-15T11:24:34;14.95;;;10.45;;
13102;SDS011;52970;46.752;17.108;2022-10-15T11:29:57;11.70;;;9.52;;
13102;SDS011;52970;46.752;17.108;2022-10-15T11:37:37;12.48;;;9.25;;
13102;SDS011;52970;46.752;17.108;2022-10-15T11:45:21;16.20;;;10.03;;
13102;SDS011;52970;46.752;17.108;2022-10-15T11:47:56;13.02;;;10.82;;
13102;SDS011;52970;46.752;17.108;2022-10-15T11:51:26;11.43;;;10.18;;
13102;SDS011;52970;46.752;17.108;2022-10-15T11:55:51;12.98;;;9.98;;
13102;SDS011;52970;46.752;17.108;2022-10-15T11:58:29;13.73;;;9.95;;
13102;SDS011;52970;46.752;17.108;2022-10-15T12:00:57;14.18;;;10.25;;
13102;SDS011;52970;46.752;17.108;2022-10-15T12:03:28;13.13;;;10.43;;
13102;SDS011;52970;46.752;17.108;2022-10-15T12:05:57;13.07;;;11.10;;
13102;SDS011;52970;46.752;17.108;2022-10-15T12:08:29;13.93;;;11.18;;
13102;SDS011;52970;46.752;17.108;2022-10-15T12:11:10;14.60;;;10.93;;
13102;SDS011;52970;46.752;17.108;2022-10-15T12:13:40;17.73;;;11.90;;
13102;SDS011;52970;46.752;17.108;2022-10-15T12:16:18;14.60;;;11.60;;
13102;SDS011;52970;46.752;17.108;2022-10-15T12:21:28;13.55;;;11.80;;
13102;SDS011;52970;46.752;17.108;2022-10-15T12:23:54;13.75;;;11.52;;
13102;SDS011;52970;46.752;17.108;2022-10-15T12:26:30;13.57;;;11.10;;
13102;SDS011;52970;46.752;17.108;2022-10-15T12:28:59;12.18;;;10.90;;
13102;SDS011;52970;46.752;17.108;2022-10-15T12:31:32;13.88;;;11.13;;
13102;SDS011;52970;46.752;17.108;2022-10-15T12:34:19;15.23;;;11.30;;
13102;SDS011;52970;46.752;17.108;2022-10-15T12:36:51;12.82;;;10.70;;
13102;SDS011;52970;46.752;17.108;2022-10-15T12:39:23;14.20;;;10.80;;
13102;SDS011;52970;46.752;17.108;2022-10-15T12:41:48;12.45;;;10.63;;
13102;SDS011;52970;46.752;17.108;2022-10-15T12:44:30;14.10;;;10.85;;
13102;SDS011;52970;46.752;17.108;2022-10-15T12:46:57;14.57;;;10.77;;
13102;SDS011;52970;46.752;17.108;2022-10-15T12:51:51;14.45;;;9.90;;
13102;SDS011;52970;46.752;17.108;2022-10-15T12:54:36;14.48;;;10.75;;
13102;SDS011;52970;46.752;17.108;2022-10-15T12:57:02;12.65;;;10.50;;
13102;SDS011;52970;46.752;17.108;2022-10-15T12:59:30;12.10;;;10.32;;
13102;SDS011;52970;46.752;17.108;2022-10-15T13:04:58;11.38;;;10.18;;
13102;SDS011;52970;46.752;17.108;2022-10-15T13:07:23;12.43;;;10.27;;
13102;SDS011;52970;46.752;17.108;2022-10-15T13:09:48;13.68;;;9.88;;
13102;SDS011;52970;46.752;17.108;2022-10-15T13:12:20;13.15;;;11.40;;
13102;SDS011;52970;46.752;17.108;2022-10-15T13:14:51;10.55;;;9.43;;
13102;SDS011;52970;46.752;17.108;2022-10-15T13:17:19;14.55;;;10.98;;
13102;SDS011;52970;46.752;17.108;2022-10-15T13:19:46;13.65;;;10.52;;
13102;SDS011;52970;46.752;17.108;2022-10-15T13:22:25;13.85;;;11.18;;
13102;SDS011;52970;46.752;17.108;2022-10-15T13:24:51;12.50;;;11.15;;
13102;SDS011;52970;46.752;17.108;2022-10-15T13:27:21;14.85;;;11.40;;
13102;SDS011;52970;46.752;17.108;2022-10-15T13:32:20;15.95;;;12.40;;
13102;SDS011;52970;46.752;17.108;2022-10-15T13:34:46;14.32;;;11.95;;
13102;SDS011;52970;46.752;17.108;2022-10-15T13:37:14;17.15;;;12.15;;
13102;SDS011;52970;46.752;17.108;2022-10-15T13:39:40;16.05;;;12.32;;
13102;SDS011;52970;46.752;17.108;2022-10-15T13:44:37;15.80;;;13.63;;
13102;SDS011;52970;46.752;17.108;2022-10-15T13:47:02;16.42;;;13.75;;
13102;SDS011;52970;46.752;17.108;2022-10-15T13:49:41;17.80;;;13.35;;
13102;SDS011;52970;46.752;17.108;2022-10-15T13:52:06;19.88;;;14.20;;
13102;SDS011;52970;46.752;17.108;2022-10-15T13:54:32;18.55;;;14.30;;
13102;SDS011;52970;46.752;17.108;2022-10-15T13:56:58;18.67;;;13.57;;
13102;SDS011;52970;46.752;17.108;2022-10-15T13:59:27;16.42;;;13.57;;
13102;SDS011;52970;46.752;17.108;2022-10-15T14:01:53;17.55;;;13.73;;
13102;SDS011;52970;46.752;17.108;2022-10-15T14:04:24;17.77;;;14.15;;
13102;SDS011;52970;46.752;17.108;2022-10-15T14:06:53;18.73;;;13.55;;
13102;SDS011;52970;46.752;17.108;2022-10-15T14:09:24;16.02;;;13.23;;
13102;SDS011;52970;46.752;17.108;2022-10-15T14:11:52;14.73;;;12.98;;
13102;SDS011;52970;46.752;17.108;2022-10-15T14:14:37;18.02;;;14.05;;
13102;SDS011;52970;46.752;17.108;2022-10-15T14:19:34;17.70;;;14.25;;
13102;SDS011;52970;46.752;17.108;2022-10-15T14:22:00;19.50;;;14.50;;
13102;SDS011;52970;46.752;17.108;2022-10-15T14:24:36;19.17;;;14.20;;
13102;SDS011;52970;46.752;17.108;2022-10-15T14:27:21;16.35;;;12.88;;
13102;SDS011;52970;46.752;17.108;2022-10-15T14:29:50;17.23;;;12.48;;
13102;SDS011;52970;46.752;17.108;2022-10-15T14:34:48;13.77;;;12.20;;
13102;SDS011;52970;46.752;17.108;2022-10-15T14:42:31;18.05;;;14.82;;
13102;SDS011;52970;46.752;17.108;2022-10-15T14:45:08;19.60;;;15.88;;
13102;SDS011;52970;46.752;17.108;2022-10-15T14:47:34;20.30;;;16.33;;
13102;SDS011;52970;46.752;17.108;2022-10-15T14:49:59;22.73;;;17.38;;
13102;SDS011;52970;46.752;17.108;2022-10-15T14:52:25;21.23;;;17.08;;
13102;SDS011;52970;46.752;17.108;2022-10-15T14:57:29;19.02;;;15.63;;
13102;SDS011;52970;46.752;17.108;2022-10-15T14:59:55;18.42;;;14.60;;
13102;SDS011;52970;46.752;17.108;2022-10-15T15:02:21;19.83;;;15.75;;
13102;SDS011;52970;46.752;17.108;2022-10-15T15:05:07;17.33;;;14.55;;
13102;SDS011;52970;46.752;17.108;2022-10-15T15:07:33;16.73;;;13.45;;
13102;SDS011;52970;46.752;17.108;2022-10-15T15:09:58;18.33;;;14.75;;
13102;SDS011;52970;46.752;17.108;2022-10-15T15:12:24;16.85;;;13.95;;
13102;SDS011;52970;46.752;17.108;2022-10-15T15:14:50;16.58;;;13.95;;
13102;SDS011;52970;46.752;17.108;2022-10-15T15:17:22;15.52;;;13.43;;
13102;SDS011;52970;46.752;17.108;2022-10-15T15:19:48;19.15;;;13.65;;
13102;SDS011;52970;46.752;17.108;2022-10-15T15:22:14;16.58;;;13.73;;
13102;SDS011;52970;46.752;17.108;2022-10-15T15:24:40;15.18;;;13.05;;
13102;SDS011;52970;46.752;17.108;2022-10-15T15:27:05;14.27;;;12.75;;
13102;SDS011;52970;46.752;17.108;2022-10-15T15:29:30;16.25;;;13.90;;
13102;SDS011;52970;46.752;17.108;2022-10-15T15:31:56;19.05;;;13.68;;
13102;SDS011;52970;46.752;17.108;2022-10-15T15:34:21;16.53;;;14.83;;
13102;SDS011;52970;46.752;17.108;2022-10-15T15:36:47;18.27;;;15.07;;
13102;SDS011;52970;46.752;17.108;2022-10-15T15:39:13;22.02;;;16.90;;
13102;SDS011;52970;46.752;17.108;2022-10-15T15:41:38;17.27;;;15.02;;
13102;SDS011;52970;46.752;17.108;2022-10-15T15:44:04;20.48;;;15.38;;
13102;SDS011;52970;46.752;17.108;2022-10-15T15:46:31;17.55;;;14.82;;
13102;SDS011;52970;46.752;17.108;2022-10-15T15:48:56;16.92;;;14.18;;
13102;SDS011;52970;46.752;17.108;2022-10-15T15:51:29;18.55;;;14.90;;
13102;SDS011;52970;46.752;17.108;2022-10-15T15:53:56;19.80;;;16.58;;
13102;SDS011;52970;46.752;17.108;2022-10-15T15:56:21;27.70;;;18.55;;
13102;SDS011;52970;46.752;17.108;2022-10-15T15:58:46;19.67;;;15.80;;
13102;SDS011;52970;46.752;17.108;2022-10-15T16:01:14;20.67;;;17.25;;